Time;durP1;ratioP1;P1;durP2;ratioP2;P2;SDS_P1;SDS_P2;PMS_P1;PMS_P2;Temp;Humidity;BMP_temperature;BMP_pressure;BME280_temperature;BME280_humidity;BME280_pressure;Samples;Min_cycle;Max_cycle;Signal;HPM_P1;HPM_P2
2023/03/22 00:01:24;;;;;;;7.80;6.67;;;;;;;;;;5073623;28;20566;-61
2023/03/22 00:03:52;;;;;;;10.13;6.30;;;;;;;;;;5073230;28;20262;-62
2023/03/22 00:06:18;;;;;;;7.00;6.30;;;;;;;;;;5073134;28;20253;-64
2023/03/22 00:08:44;;;;;;;7.20;6.50;;;;;;;;;;5073292;28;20677;-61
2023/03/22 00:11:11;;;;;;;9.00;6.63;;;;;;;;;;5073451;28;20199;-61
2023/03/22 00:13:38;;;;;;;6.77;5.93;;;;;;;;;;5059626;28;20578;-61
2023/03/22 00:16:04;;;;;;;7.00;6.27;;;;;;;;;;5052965;28;20219;-61
2023/03/22 00:18:30;;;;;;;7.93;6.57;;;;;;;;;;5053002;28;20230;-61
2023/03/22 00:20:59;;;;;;;7.40;6.60;;;;;;;;;;5052956;28;20196;-62
2023/03/22 00:23:25;;;;;;;8.43;6.10;;;;;;;;;;5053205;28;20208;-61
2023/03/22 00:25:52;;;;;;;6.53;5.90;;;;;;;;;;5052949;28;20224;-61
2023/03/22 00:28:18;;;;;;;6.27;5.70;;;;;;;;;;5052698;28;20261;-61
2023/03/22 00:30:50;;;;;;;8.73;5.83;;;;;;;;;;5052588;28;20192;-62
2023/03/22 00:33:16;;;;;;;7.03;6.30;;;;;;;;;;5050925;28;20197;-59
2023/03/22 00:35:47;;;;;;;8.13;6.33;;;;;;;;;;5051215;28;20197;-62
2023/03/22 00:38:14;;;;;;;6.57;5.77;;;;;;;;;;5052891;28;20227;-63
2023/03/22 00:40:40;;;;;;;6.60;5.50;;;;;;;;;;5052959;28;20295;-61
2023/03/22 00:43:07;;;;;;;7.93;6.63;;;;;;;;;;5052753;28;20220;-60
2023/03/22 00:45:36;;;;;;;6.10;5.50;;;;;;;;;;5052786;28;20285;-60
2023/03/22 00:48:02;;;;;;;6.83;6.10;;;;;;;;;;5051754;28;20464;-60
2023/03/22 00:50:28;;;;;;;8.77;5.97;;;;;;;;;;5052941;28;20204;-60
2023/03/22 00:52:54;;;;;;;6.43;5.70;;;;;;;;;;5052638;28;20235;-60
2023/03/22 00:55:21;;;;;;;7.13;6.13;;;;;;;;;;5052724;28;20203;-60
2023/03/22 00:57:47;;;;;;;7.77;5.80;;;;;;;;;;5052487;28;20575;-60
2023/03/22 01:00:15;;;;;;;6.90;6.00;;;;;;;;;;5052611;28;20211;-60
2023/03/22 01:02:41;;;;;;;6.37;5.77;;;;;;;;;;5052498;28;20226;-60
2023/03/22 01:05:08;;;;;;;6.70;6.10;;;;;;;;;;5052355;28;20228;-60
2023/03/22 01:07:37;;;;;;;8.40;5.40;;;;;;;;;;5052446;28;20290;-60
2023/03/22 01:10:03;;;;;;;7.73;6.03;;;;;;;;;;5052326;28;20231;-60
2023/03/22 01:12:31;;;;;;;8.50;6.60;;;;;;;;;;5052347;28;20207;-60
2023/03/22 01:14:57;;;;;;;8.63;6.03;;;;;;;;;;5052168;28;20200;-60
2023/03/22 01:17:23;;;;;;;7.97;5.70;;;;;;;;;;5052195;28;20192;-61
2023/03/22 01:19:49;;;;;;;6.40;5.80;;;;;;;;;;5052261;28;20196;-60
2023/03/22 01:22:15;;;;;;;6.77;6.10;;;;;;;;;;5052072;28;20278;-60
2023/03/22 01:24:41;;;;;;;7.87;5.97;;;;;;;;;;5051979;28;20230;-60
2023/03/22 01:27:07;;;;;;;7.00;6.07;;;;;;;;;;5052013;28;20295;-60
2023/03/22 01:29:34;;;;;;;8.47;5.83;;;;;;;;;;5052352;28;20202;-60
2023/03/22 01:32:00;;;;;;;7.07;5.53;;;;;;;;;;5051838;28;20208;-60
2023/03/22 01:34:26;;;;;;;7.73;5.60;;;;;;;;;;5052057;28;20246;-60
2023/03/22 01:36:53;;;;;;;7.93;5.67;;;;;;;;;;5051905;28;20192;-60
2023/03/22 01:39:19;;;;;;;8.17;5.70;;;;;;;;;;5051909;28;20258;-60
2023/03/22 01:41:45;;;;;;;8.53;5.63;;;;;;;;;;5051716;28;20223;-60
2023/03/22 01:44:12;;;;;;;8.73;5.73;;;;;;;;;;5051783;28;20573;-60
2023/03/22 01:46:40;;;;;;;6.93;5.73;;;;;;;;;;5051855;28;20200;-60
2023/03/22 01:49:08;;;;;;;6.30;5.70;;;;;;;;;;5051751;28;20196;-60
2023/03/22 01:51:34;;;;;;;6.43;5.60;;;;;;;;;;5051146;28;20649;-59
2023/03/22 01:54:03;;;;;;;7.90;5.97;;;;;;;;;;5050810;28;20196;-60
2023/03/22 01:56:30;;;;;;;5.90;5.30;;;;;;;;;;5051010;28;20203;-59
2023/03/22 01:58:56;;;;;;;7.80;5.70;;;;;;;;;;5050708;28;20200;-59
2023/03/22 02:01:23;;;;;;;7.00;5.60;;;;;;;;;;5051019;28;20227;-60
2023/03/22 02:03:52;;;;;;;7.67;6.07;;;;;;;;;;5050798;28;20293;-60
2023/03/22 02:06:18;;;;;;;6.83;6.13;;;;;;;;;;5050779;28;20318;-60
2023/03/22 02:08:44;;;;;;;8.70;5.63;;;;;;;;;;5050716;28;20207;-60
2023/03/22 02:11:13;;;;;;;6.60;5.87;;;;;;;;;;5050888;28;20254;-60
2023/03/22 02:13:52;;;;;;;8.83;6.00;;;;;;;;;;5050967;28;20210;-60
2023/03/22 02:16:24;;;;;;;8.23;5.70;;;;;;;;;;5050761;28;20228;-60
2023/03/22 02:18:57;;;;;;;7.93;5.87;;;;;;;;;;5050697;28;20570;-59
2023/03/22 02:21:37;;;;;;;8.03;5.90;;;;;;;;;;5051816;28;20224;-60
2023/03/22 02:24:27;;;;;;;7.67;6.10;;;;;;;;;;5051225;28;20206;-59
2023/03/22 02:27:08;;;;;;;6.60;5.73;;;;;;;;;;5036172;28;20266;-60
2023/03/22 02:29:40;;;;;;;7.47;6.23;;;;;;;;;;5051283;28;20565;-60
2023/03/22 02:32:18;;;;;;;7.00;6.00;;;;;;;;;;5051217;28;20650;-60
2023/03/22 02:34:54;;;;;;;6.13;5.53;;;;;;;;;;5051293;28;20192;-60
2023/03/22 02:37:32;;;;;;;7.80;6.13;;;;;;;;;;5051401;28;20199;-59
2023/03/22 02:40:04;;;;;;;6.97;6.27;;;;;;;;;;5051145;28;20208;-60
2023/03/22 02:42:37;;;;;;;7.30;6.20;;;;;;;;;;5051202;28;20354;-60
2023/03/22 02:45:08;;;;;;;7.10;6.40;;;;;;;;;;5051139;28;20228;-60
2023/03/22 02:47:37;;;;;;;7.43;5.73;;;;;;;;;;5051204;28;20231;-59
2023/03/22 02:50:06;;;;;;;7.13;6.10;;;;;;;;;;5051115;28;20220;-60
2023/03/22 02:52:38;;;;;;;8.47;6.20;;;;;;;;;;5051102;28;20275;-59
2023/03/22 02:55:09;;;;;;;7.63;6.27;;;;;;;;;;5050926;28;20625;-60
2023/03/22 02:57:37;;;;;;;7.67;5.67;;;;;;;;;;5051188;28;20209;-59
2023/03/22 03:03:10;;;;;;;7.53;6.33;;;;;;;;;;5050931;28;20187;-59
2023/03/22 03:05:37;;;;;;;7.27;6.43;;;;;;;;;;5050911;28;20274;-59
2023/03/22 03:08:03;;;;;;;7.63;6.27;;;;;;;;;;5050983;28;20200;-59
2023/03/22 03:10:31;;;;;;;7.83;6.10;;;;;;;;;;5050875;28;20201;-59
2023/03/22 03:12:58;;;;;;;6.80;6.13;;;;;;;;;;5054039;28;20276;-59
2023/03/22 03:15:24;;;;;;;9.33;6.13;;;;;;;;;;5054598;28;20602;-59
2023/03/22 03:17:59;;;;;;;6.20;5.30;;;;;;;;;;5054561;28;20204;-59
2023/03/22 03:20:33;;;;;;;7.80;6.13;;;;;;;;;;5054392;28;20204;-59
2023/03/22 03:23:06;;;;;;;9.80;5.47;;;;;;;;;;5054357;28;20211;-59
2023/03/22 03:25:42;;;;;;;8.17;5.60;;;;;;;;;;5054158;28;20236;-59
2023/03/22 03:28:10;;;;;;;6.60;5.40;;;;;;;;;;5054437;28;20200;-59
2023/03/22 03:30:39;;;;;;;6.93;5.40;;;;;;;;;;5054256;28;20192;-60
2023/03/22 03:33:08;;;;;;;8.37;5.93;;;;;;;;;;5054318;28;20585;-60
2023/03/22 03:35:37;;;;;;;8.60;5.97;;;;;;;;;;5054372;28;20223;-59
2023/03/22 03:38:07;;;;;;;7.53;5.83;;;;;;;;;;5054059;28;20597;-59
2023/03/22 03:40:36;;;;;;;6.93;6.13;;;;;;;;;;5054057;28;20192;-59
2023/03/22 03:43:05;;;;;;;7.07;6.37;;;;;;;;;;5053907;28;20592;-59
2023/03/22 03:45:31;;;;;;;8.90;6.03;;;;;;;;;;5053657;28;20275;-59
2023/03/22 03:47:58;;;;;;;7.93;6.00;;;;;;;;;;5054001;28;20291;-59
2023/03/22 03:50:25;;;;;;;7.70;6.23;;;;;;;;;;5053878;28;20196;-59
2023/03/22 03:52:52;;;;;;;9.23;6.43;;;;;;;;;;5053970;28;20184;-59
2023/03/22 03:55:19;;;;;;;9.83;5.87;;;;;;;;;;5053732;28;20612;-59
2023/03/22 03:57:46;;;;;;;7.67;6.57;;;;;;;;;;5053969;28;20189;-60
2023/03/22 04:00:15;;;;;;;9.37;6.20;;;;;;;;;;5053654;28;20215;-59
2023/03/22 04:02:41;;;;;;;8.63;6.70;;;;;;;;;;5053752;28;20566;-59
2023/03/22 04:05:08;;;;;;;6.43;5.83;;;;;;;;;;5053689;28;20240;-59
2023/03/22 04:07:34;;;;;;;10.03;6.30;;;;;;;;;;5053807;28;20239;-59
2023/03/22 04:10:00;;;;;;;7.57;6.87;;;;;;;;;;5053680;28;20196;-59
2023/03/22 04:12:26;;;;;;;10.77;7.10;;;;;;;;;;5053425;28;20560;-59
2023/03/22 04:14:54;;;;;;;8.90;6.00;;;;;;;;;;5053560;28;20184;-59
2023/03/22 04:17:20;;;;;;;9.20;6.73;;;;;;;;;;5053249;28;20292;-60
2023/03/22 04:19:46;;;;;;;8.67;6.63;;;;;;;;;;5053432;28;20224;-59
2023/03/22 04:22:17;;;;;;;7.77;6.27;;;;;;;;;;5053254;28;20200;-59
2023/03/22 04:24:48;;;;;;;8.47;5.80;;;;;;;;;;5053025;28;20228;-59
2023/03/22 04:27:15;;;;;;;9.77;6.23;;;;;;;;;;5053169;28;20223;-59
2023/03/22 04:29:47;;;;;;;7.00;6.30;;;;;;;;;;5053084;28;20655;-59
2023/03/22 04:32:15;;;;;;;7.20;6.50;;;;;;;;;;5053199;28;20246;-59
2023/03/22 04:34:41;;;;;;;6.97;6.00;;;;;;;;;;5053122;28;20200;-59
2023/03/22 04:37:07;;;;;;;6.87;6.10;;;;;;;;;;5053184;28;20254;-60
2023/03/22 04:39:33;;;;;;;7.33;6.37;;;;;;;;;;5052835;28;20674;-60
2023/03/22 04:41:59;;;;;;;9.57;6.90;;;;;;;;;;5052859;28;20307;-59
2023/03/22 04:44:25;;;;;;;8.27;6.73;;;;;;;;;;5053083;28;20226;-59
2023/03/22 04:46:51;;;;;;;8.90;6.07;;;;;;;;;;5052871;28;20192;-59
2023/03/22 04:49:19;;;;;;;7.77;6.70;;;;;;;;;;5052713;28;20199;-59
2023/03/22 04:51:45;;;;;;;10.57;6.90;;;;;;;;;;5052842;28;20254;-59
2023/03/22 04:54:11;;;;;;;8.60;6.33;;;;;;;;;;5052756;28;20234;-59
2023/03/22 04:56:37;;;;;;;10.17;6.40;;;;;;;;;;5052660;28;20224;-59
2023/03/22 04:59:03;;;;;;;9.07;6.93;;;;;;;;;;5052602;28;20192;-59
2023/03/22 05:01:29;;;;;;;8.07;6.40;;;;;;;;;;5052303;28;20204;-60
2023/03/22 05:03:55;;;;;;;10.83;6.80;;;;;;;;;;5052566;28;20319;-59
2023/03/22 05:06:22;;;;;;;7.60;6.80;;;;;;;;;;5052231;28;20322;-59
2023/03/22 05:08:48;;;;;;;9.73;6.97;;;;;;;;;;5052389;28;20206;-59
2023/03/22 05:11:15;;;;;;;7.67;6.87;;;;;;;;;;5052270;28;20200;-59
2023/03/22 05:13:41;;;;;;;9.53;6.60;;;;;;;;;;5052392;28;20259;-59
2023/03/22 05:16:08;;;;;;;7.80;5.80;;;;;;;;;;5052336;28;20219;-59
2023/03/22 05:18:36;;;;;;;8.80;6.23;;;;;;;;;;5052143;28;20208;-59
2023/03/22 05:21:05;;;;;;;7.90;6.77;;;;;;;;;;5052155;28;20235;-59
2023/03/22 05:23:32;;;;;;;10.90;6.50;;;;;;;;;;5052029;28;20211;-60
2023/03/22 05:26:00;;;;;;;9.47;6.80;;;;;;;;;;5052024;28;20315;-59
2023/03/22 05:28:27;;;;;;;8.03;6.77;;;;;;;;;;5052050;28;20196;-59
2023/03/22 05:30:53;;;;;;;7.87;6.60;;;;;;;;;;5052109;28;20196;-60
2023/03/22 05:33:20;;;;;;;10.80;6.90;;;;;;;;;;5051977;28;20265;-59
2023/03/22 05:35:47;;;;;;;8.40;6.70;;;;;;;;;;5051475;28;20724;-59
2023/03/22 05:38:13;;;;;;;7.70;6.67;;;;;;;;;;5051917;28;20348;-59
2023/03/22 05:40:40;;;;;;;7.60;6.73;;;;;;;;;;5051947;28;20224;-59
2023/03/22 05:43:06;;;;;;;12.70;8.60;;;;;;;;;;5051821;28;20286;-60
2023/03/22 05:45:35;;;;;;;9.43;7.20;;;;;;;;;;5051593;28;20308;-59
2023/03/22 05:48:01;;;;;;;7.73;6.90;;;;;;;;;;5051667;28;20587;-59
2023/03/22 05:50:27;;;;;;;13.57;7.27;;;;;;;;;;5051700;28;20242;-60
2023/03/22 05:52:53;;;;;;;9.00;7.47;;;;;;;;;;5051864;28;20200;-59
2023/03/22 05:55:21;;;;;;;8.60;7.20;;;;;;;;;;5051703;28;20219;-59
2023/03/22 05:57:50;;;;;;;11.37;8.00;;;;;;;;;;5051606;28;20430;-59
2023/03/22 06:00:17;;;;;;;9.53;7.90;;;;;;;;;;5051487;28;20265;-59
2023/03/22 06:02:44;;;;;;;8.10;7.30;;;;;;;;;;5051511;28;20655;-59
2023/03/22 06:05:11;;;;;;;8.57;7.57;;;;;;;;;;5051367;28;20244;-59
2023/03/22 06:07:37;;;;;;;10.07;7.93;;;;;;;;;;5051492;28;20224;-59
2023/03/22 06:10:04;;;;;;;8.87;7.90;;;;;;;;;;5051326;28;20622;-59
2023/03/22 06:12:30;;;;;;;9.67;7.97;;;;;;;;;;5051419;28;20251;-59
2023/03/22 06:14:57;;;;;;;10.33;7.70;;;;;;;;;;5051232;28;20547;-59
2023/03/22 06:17:23;;;;;;;9.30;8.37;;;;;;;;;;5050363;28;20204;-59
2023/03/22 06:19:50;;;;;;;10.10;7.83;;;;;;;;;;5051333;28;20199;-59
2023/03/22 06:22:16;;;;;;;10.03;7.77;;;;;;;;;;5051198;28;20203;-59
2023/03/22 06:24:42;;;;;;;11.53;7.53;;;;;;;;;;5051317;28;20208;-59
2023/03/22 06:27:08;;;;;;;9.47;8.20;;;;;;;;;;5051504;28;20196;-59
2023/03/22 06:29:34;;;;;;;9.27;8.13;;;;;;;;;;5051088;28;20257;-60
2023/03/22 06:32:02;;;;;;;11.70;7.97;;;;;;;;;;5068483;28;20200;-60
2023/03/22 06:34:28;;;;;;;10.77;8.13;;;;;;;;;;5071051;28;20573;-60
2023/03/22 06:36:54;;;;;;;9.60;7.80;;;;;;;;;;5071359;28;20571;-60
2023/03/22 06:39:21;;;;;;;10.70;8.03;;;;;;;;;;5071188;28;20288;-60
2023/03/22 06:41:47;;;;;;;9.13;8.23;;;;;;;;;;5071135;28;20192;-60
2023/03/22 06:44:14;;;;;;;9.63;7.73;;;;;;;;;;5071130;28;20298;-60
2023/03/22 06:46:40;;;;;;;10.97;8.50;;;;;;;;;;5072316;28;20310;-60
2023/03/22 06:49:07;;;;;;;9.50;7.83;;;;;;;;;;5075109;28;20438;-59
2023/03/22 06:51:33;;;;;;;9.10;7.50;;;;;;;;;;5074625;28;20680;-60
2023/03/22 06:54:00;;;;;;;13.80;7.67;;;;;;;;;;5074912;28;20207;-58
2023/03/22 06:56:26;;;;;;;10.33;8.13;;;;;;;;;;5074836;28;20196;-58
2023/03/22 06:58:53;;;;;;;10.70;7.60;;;;;;;;;;5074852;28;20556;-58
2023/03/22 07:01:19;;;;;;;10.13;8.07;;;;;;;;;;5074911;28;20226;-58
2023/03/22 07:03:45;;;;;;;8.70;7.43;;;;;;;;;;5074544;28;20310;-58
2023/03/22 07:06:13;;;;;;;8.30;7.07;;;;;;;;;;5074273;28;20338;-58
2023/03/22 07:08:38;;;;;;;10.70;8.13;;;;;;;;;;5074576;28;20200;-58
2023/03/22 07:11:05;;;;;;;8.77;7.23;;;;;;;;;;5074600;28;20210;-58
2023/03/22 07:13:31;;;;;;;9.70;6.93;;;;;;;;;;5074494;28;20208;-58
2023/03/22 07:15:58;;;;;;;8.73;7.73;;;;;;;;;;5074438;28;20241;-58
2023/03/22 07:18:24;;;;;;;7.83;6.97;;;;;;;;;;5074355;28;20214;-58
2023/03/22 07:20:50;;;;;;;7.80;6.63;;;;;;;;;;5074450;28;20199;-58
2023/03/22 07:23:18;;;;;;;8.10;7.13;;;;;;;;;;5074335;28;20206;-58
2023/03/22 07:25:45;;;;;;;8.30;6.83;;;;;;;;;;5074118;28;20223;-58
2023/03/22 07:28:11;;;;;;;8.37;7.13;;;;;;;;;;5074396;28;20200;-58
2023/03/22 07:30:37;;;;;;;7.37;6.63;;;;;;;;;;5074177;28;20199;-58
2023/03/22 07:33:03;;;;;;;8.03;6.50;;;;;;;;;;5074506;28;20192;-58
2023/03/22 07:35:29;;;;;;;7.83;6.43;;;;;;;;;;5074127;28;20278;-57
2023/03/22 07:37:55;;;;;;;6.80;5.80;;;;;;;;;;5074271;28;20285;-58
2023/03/22 07:40:23;;;;;;;6.70;5.40;;;;;;;;;;5074106;28;20253;-58
2023/03/22 07:42:49;;;;;;;6.40;5.70;;;;;;;;;;5073922;28;20223;-60
2023/03/22 07:45:15;;;;;;;7.60;6.17;;;;;;;;;;5073711;28;20258;-52
2023/03/22 07:47:41;;;;;;;8.77;6.10;;;;;;;;;;5073894;28;20249;-55
2023/03/22 07:50:08;;;;;;;7.17;5.23;;;;;;;;;;5074138;28;20196;-59
2023/03/22 07:52:35;;;;;;;7.30;6.13;;;;;;;;;;5073795;28;20620;-58
2023/03/22 07:55:01;;;;;;;6.60;5.50;;;;;;;;;;5073863;28;20249;-58
2023/03/22 07:57:28;;;;;;;7.13;5.00;;;;;;;;;;5073389;28;20199;-58
2023/03/22 07:59:55;;;;;;;7.20;4.83;;;;;;;;;;5073841;28;20404;-57
2023/03/22 08:02:21;;;;;;;8.13;4.77;;;;;;;;;;5073803;28;20282;-57
2023/03/22 08:04:49;;;;;;;6.17;4.70;;;;;;;;;;5072944;28;20701;-58
2023/03/22 08:07:17;;;;;;;6.67;4.90;;;;;;;;;;5073417;28;20416;-58
2023/03/22 08:09:43;;;;;;;7.03;5.63;;;;;;;;;;5073442;28;20287;-58
2023/03/22 08:12:09;;;;;;;8.37;6.03;;;;;;;;;;5073511;28;20669;-58
2023/03/22 08:14:37;;;;;;;6.03;4.73;;;;;;;;;;5073299;28;20287;-57
2023/03/22 08:17:03;;;;;;;7.43;4.40;;;;;;;;;;5073398;28;20633;-58
2023/03/22 08:19:30;;;;;;;8.70;4.40;;;;;;;;;;5073131;28;20231;-58
2023/03/22 08:21:56;;;;;;;9.07;5.40;;;;;;;;;;5073330;28;20203;-58
2023/03/22 08:24:22;;;;;;;7.37;5.13;;;;;;;;;;5073352;28;20245;-57
2023/03/22 08:26:48;;;;;;;7.60;4.00;;;;;;;;;;5073196;28;20233;-60
2023/03/22 08:29:15;;;;;;;8.63;4.40;;;;;;;;;;5073205;28;20283;-61
2023/03/22 08:31:42;;;;;;;7.10;5.87;;;;;;;;;;5072976;28;20200;-55
2023/03/22 08:34:08;;;;;;;7.27;4.27;;;;;;;;;;5073000;28;20677;-59
2023/03/22 08:36:34;;;;;;;8.27;4.30;;;;;;;;;;5072953;28;20195;-56
2023/03/22 08:39:00;;;;;;;7.33;4.30;;;;;;;;;;5073024;28;20202;-56
2023/03/22 08:41:26;;;;;;;7.60;4.03;;;;;;;;;;5072844;28;20274;-56
2023/03/22 08:43:52;;;;;;;6.07;3.37;;;;;;;;;;5073012;28;20231;-55
2023/03/22 08:46:18;;;;;;;4.13;3.20;;;;;;;;;;5072458;28;20241;-59
2023/03/22 08:48:49;;;;;;;4.70;2.90;;;;;;;;;;5072589;28;20684;-57
2023/03/22 08:51:15;;;;;;;4.67;2.80;;;;;;;;;;5072846;28;20207;-58
2023/03/22 08:53:41;;;;;;;7.87;3.37;;;;;;;;;;5072570;28;20195;-53
2023/03/22 08:56:08;;;;;;;8.87;3.17;;;;;;;;;;5072716;28;20233;-54
2023/03/22 08:58:35;;;;;;;6.03;3.03;;;;;;;;;;5072393;28;20684;-55
2023/03/22 09:01:02;;;;;;;4.63;2.60;;;;;;;;;;5072433;28;20236;-52
2023/03/22 09:03:28;;;;;;;9.37;3.30;;;;;;;;;;5072196;28;20267;-52
2023/03/22 09:05:56;;;;;;;5.70;2.93;;;;;;;;;;5072538;28;20235;-55
2023/03/22 09:08:22;;;;;;;5.60;2.77;;;;;;;;;;5072224;28;20676;-55
2023/03/22 09:10:51;;;;;;;7.00;2.93;;;;;;;;;;5071677;28;20196;-55
2023/03/22 09:13:17;;;;;;;4.03;2.63;;;;;;;;;;5072308;28;20196;-55
2023/03/22 09:15:46;;;;;;;5.97;2.83;;;;;;;;;;5072033;28;20200;-54
2023/03/22 09:18:12;;;;;;;5.47;2.70;;;;;;;;;;5072247;28;20199;-54
2023/03/22 09:20:38;;;;;;;5.93;3.10;;;;;;;;;;5072161;28;20203;-57
2023/03/22 09:23:06;;;;;;;4.50;2.50;;;;;;;;;;5072209;28;20202;-54
2023/03/22 09:25:32;;;;;;;4.27;2.70;;;;;;;;;;5071945;28;20231;-56
2023/03/22 09:27:58;;;;;;;6.03;2.50;;;;;;;;;;5072134;28;20202;-54
2023/03/22 09:30:24;;;;;;;6.40;3.10;;;;;;;;;;5072068;28;20199;-55
2023/03/22 09:32:50;;;;;;;7.50;3.00;;;;;;;;;;5072196;28;20206;-56
2023/03/22 09:35:16;;;;;;;4.90;2.63;;;;;;;;;;5071899;28;20243;-54
2023/03/22 09:37:44;;;;;;;6.27;3.17;;;;;;;;;;5071856;28;20222;-53
2023/03/22 09:40:12;;;;;;;5.37;2.87;;;;;;;;;;5071906;28;20621;-54
2023/03/22 09:42:41;;;;;;;6.00;2.83;;;;;;;;;;5072244;28;20705;-53
2023/03/22 09:45:11;;;;;;;5.80;3.70;;;;;;;;;;5064814;28;20219;-55
2023/03/22 09:47:39;;;;;;;5.67;3.23;;;;;;;;;;5071882;28;20199;-56
2023/03/22 09:50:08;;;;;;;6.40;3.70;;;;;;;;;;5071625;28;20215;-54
2023/03/22 09:52:34;;;;;;;5.40;2.97;;;;;;;;;;5071454;28;20191;-55
2023/03/22 09:55:00;;;;;;;5.00;2.77;;;;;;;;;;5071383;28;20195;-54
2023/03/22 09:57:31;;;;;;;4.80;2.50;;;;;;;;;;5071508;28;20196;-54
2023/03/22 10:00:00;;;;;;;7.33;3.30;;;;;;;;;;5071512;28;20257;-54
2023/03/22 10:02:33;;;;;;;3.93;3.00;;;;;;;;;;5071511;28;20278;-54
2023/03/22 10:05:03;;;;;;;4.77;3.27;;;;;;;;;;5071220;28;20231;-56
2023/03/22 10:07:32;;;;;;;5.77;3.00;;;;;;;;;;5069170;28;20227;-55
2023/03/22 10:10:03;;;;;;;5.33;3.07;;;;;;;;;;5070081;28;20199;-54
2023/03/22 10:12:34;;;;;;;6.07;3.00;;;;;;;;;;5071670;28;20249;-55
2023/03/22 10:15:04;;;;;;;4.10;3.10;;;;;;;;;;5071900;28;20318;-57
2023/03/22 10:17:30;;;;;;;3.73;2.50;;;;;;;;;;5071559;28;20230;-55
2023/03/22 10:19:59;;;;;;;4.43;2.77;;;;;;;;;;5071846;28;20210;-56
2023/03/22 10:22:29;;;;;;;3.20;2.77;;;;;;;;;;5075907;28;20198;-56
2023/03/22 10:24:55;;;;;;;3.80;2.57;;;;;;;;;;5075903;28;20229;-56
2023/03/22 10:27:22;;;;;;;5.10;2.87;;;;;;;;;;5075812;28;20198;-57
2023/03/22 10:29:51;;;;;;;4.47;2.80;;;;;;;;;;5075531;28;20195;-57
2023/03/22 10:32:18;;;;;;;4.07;2.60;;;;;;;;;;5075532;28;20222;-57
2023/03/22 10:34:45;;;;;;;10.77;3.30;;;;;;;;;;5075403;28;20206;-57
2023/03/22 10:37:14;;;;;;;3.70;2.50;;;;;;;;;;5075612;28;20204;-58
2023/03/22 10:39:41;;;;;;;7.10;3.37;;;;;;;;;;5075472;28;20199;-56
2023/03/22 10:42:08;;;;;;;6.73;3.37;;;;;;;;;;5073680;28;20249;-57
2023/03/22 10:44:43;;;;;;;5.53;2.70;;;;;;;;;;5075324;28;20555;-56
2023/03/22 10:47:11;;;;;;;4.53;2.40;;;;;;;;;;5072126;28;20227;-56
2023/03/22 10:49:39;;;;;;;6.37;2.67;;;;;;;;;;5074435;28;20204;-57
2023/03/22 10:52:13;;;;;;;6.00;2.50;;;;;;;;;;5074761;28;20199;-56
2023/03/22 10:54:40;;;;;;;6.20;2.97;;;;;;;;;;5074664;28;20195;-56
2023/03/22 10:57:06;;;;;;;4.63;2.50;;;;;;;;;;5074837;28;20226;-56
2023/03/22 10:59:42;;;;;;;3.20;2.50;;;;;;;;;;5074538;28;20195;-57
2023/03/22 11:02:16;;;;;;;3.47;2.60;;;;;;;;;;5074657;28;20199;-57
2023/03/22 11:04:46;;;;;;;6.13;2.87;;;;;;;;;;5074394;28;20314;-56
2023/03/22 11:07:15;;;;;;;5.40;2.57;;;;;;;;;;5074525;28;20638;-58
2023/03/22 11:09:41;;;;;;;5.37;2.60;;;;;;;;;;5074336;28;20207;-57
2023/03/22 11:12:10;;;;;;;7.00;2.83;;;;;;;;;;5074512;28;20207;-57
2023/03/22 11:14:41;;;;;;;7.37;2.93;;;;;;;;;;5074282;28;20249;-57
2023/03/22 11:17:08;;;;;;;4.73;2.53;;;;;;;;;;5074537;28;20241;-57
2023/03/22 11:19:37;;;;;;;5.67;2.63;;;;;;;;;;5074320;28;20200;-56
2023/03/22 11:22:05;;;;;;;3.60;2.23;;;;;;;;;;5074383;28;20211;-56
2023/03/22 11:24:32;;;;;;;6.03;2.53;;;;;;;;;;5074040;28;20749;-56
2023/03/22 11:27:03;;;;;;;6.50;2.40;;;;;;;;;;5074167;28;20266;-57
2023/03/22 11:29:38;;;;;;;6.77;2.70;;;;;;;;;;5073843;28;20207;-57
2023/03/22 11:32:04;;;;;;;4.13;2.50;;;;;;;;;;5073503;28;20199;-57
2023/03/22 11:34:31;;;;;;;4.60;2.80;;;;;;;;;;5074412;28;20254;-56
2023/03/22 11:37:00;;;;;;;4.43;2.40;;;;;;;;;;5074526;28;20196;-56
2023/03/22 11:39:28;;;;;;;4.97;2.13;;;;;;;;;;5074373;28;20203;-57
2023/03/22 11:41:56;;;;;;;4.63;2.20;;;;;;;;;;5074422;28;20276;-58
2023/03/22 11:44:25;;;;;;;4.00;2.10;;;;;;;;;;5074262;28;20222;-56
2023/03/22 11:46:53;;;;;;;7.53;2.87;;;;;;;;;;5074157;28;20255;-56
2023/03/22 11:49:19;;;;;;;4.43;2.10;;;;;;;;;;5074161;28;20222;-56
2023/03/22 11:51:45;;;;;;;5.17;2.00;;;;;;;;;;5073993;28;20278;-57
2023/03/22 11:54:19;;;;;;;4.30;2.40;;;;;;;;;;5074051;28;20246;-56
2023/03/22 11:56:47;;;;;;;4.80;2.40;;;;;;;;;;5073930;28;20199;-57
2023/03/22 11:59:14;;;;;;;4.30;2.20;;;;;;;;;;5073923;28;20187;-56
2023/03/22 12:01:42;;;;;;;4.70;2.00;;;;;;;;;;5073897;28;20200;-57
2023/03/22 12:04:10;;;;;;;4.60;2.10;;;;;;;;;;5073733;28;20285;-57
2023/03/22 12:06:38;;;;;;;3.60;1.97;;;;;;;;;;5073691;28;20229;-57
2023/03/22 12:09:06;;;;;;;3.50;2.20;;;;;;;;;;5073815;28;20282;-56
2023/03/22 12:11:35;;;;;;;3.27;2.00;;;;;;;;;;5072032;28;20482;-56
2023/03/22 12:14:03;;;;;;;3.60;1.90;;;;;;;;;;5073549;28;20688;-57
2023/03/22 12:16:32;;;;;;;5.33;2.40;;;;;;;;;;5073653;28;20231;-57
2023/03/22 12:19:03;;;;;;;3.87;2.30;;;;;;;;;;5073600;28;20199;-56
2023/03/22 12:21:30;;;;;;;6.90;2.10;;;;;;;;;;5073510;28;20196;-58
2023/03/22 12:23:58;;;;;;;2.80;1.93;;;;;;;;;;5073611;28;20200;-57
2023/03/22 12:26:26;;;;;;;5.33;2.47;;;;;;;;;;5073526;28;20651;-58
2023/03/22 12:28:55;;;;;;;5.60;2.20;;;;;;;;;;5073405;28;20199;-57
2023/03/22 12:31:23;;;;;;;3.80;1.90;;;;;;;;;;5073397;28;20200;-57
2023/03/22 12:33:51;;;;;;;3.60;2.30;;;;;;;;;;5072951;28;20743;-57
2023/03/22 12:36:18;;;;;;;3.83;2.10;;;;;;;;;;5073263;28;20290;-57
2023/03/22 12:38:47;;;;;;;5.07;2.13;;;;;;;;;;5073095;28;20563;-56
2023/03/22 12:41:15;;;;;;;7.07;2.40;;;;;;;;;;5073337;28;20195;-57
2023/03/22 12:43:45;;;;;;;3.37;2.20;;;;;;;;;;5072295;28;20311;-57
2023/03/22 12:46:14;;;;;;;5.83;2.10;;;;;;;;;;5072795;28;20686;-57
2023/03/22 12:48:42;;;;;;;2.77;1.80;;;;;;;;;;5072942;28;20226;-56
2023/03/22 12:51:11;;;;;;;3.70;1.97;;;;;;;;;;5073082;28;20204;-57
2023/03/22 12:53:41;;;;;;;4.93;2.00;;;;;;;;;;5072879;28;20199;-56
2023/03/22 12:56:08;;;;;;;3.77;1.90;;;;;;;;;;5072884;28;20199;-57
2023/03/22 12:58:35;;;;;;;4.47;2.17;;;;;;;;;;5072596;28;20199;-57
2023/03/22 13:01:09;;;;;;;5.17;2.07;;;;;;;;;;5072859;28;20257;-57
2023/03/22 13:03:37;;;;;;;4.23;2.00;;;;;;;;;;5072530;28;20701;-56
2023/03/22 13:06:06;;;;;;;5.03;2.23;;;;;;;;;;5072488;28;20634;-57
2023/03/22 13:08:51;;;;;;;4.50;2.10;;;;;;;;;;5072614;28;20188;-57
2023/03/22 13:11:23;;;;;;;3.87;2.20;;;;;;;;;;5072791;28;20217;-57
2023/03/22 13:13:49;;;;;;;3.60;2.13;;;;;;;;;;5072383;28;20562;-58
2023/03/22 13:16:21;;;;;;;4.53;2.30;;;;;;;;;;5072162;28;20649;-58
2023/03/22 13:18:57;;;;;;;5.40;2.23;;;;;;;;;;5072239;28;20204;-58
2023/03/22 13:21:28;;;;;;;3.93;2.20;;;;;;;;;;5072465;28;20199;-57
2023/03/22 13:23:56;;;;;;;4.03;2.43;;;;;;;;;;5072437;28;20199;-57
2023/03/22 13:26:26;;;;;;;5.73;2.30;;;;;;;;;;5072192;28;20216;-57
2023/03/22 13:28:57;;;;;;;4.57;2.50;;;;;;;;;;5063606;28;20203;-59
2023/03/22 13:31:31;;;;;;;5.27;2.60;;;;;;;;;;5072062;28;20199;-57
2023/03/22 13:34:01;;;;;;;4.37;2.70;;;;;;;;;;5071962;28;20214;-57
2023/03/22 13:36:30;;;;;;;5.37;2.53;;;;;;;;;;5072085;28;20661;-57
2023/03/22 13:38:57;;;;;;;9.83;3.10;;;;;;;;;;5071478;28;20249;-56
2023/03/22 13:41:26;;;;;;;3.83;2.57;;;;;;;;;;5072043;28;20257;-56
2023/03/22 13:43:54;;;;;;;5.20;3.03;;;;;;;;;;5071505;28;20215;-57
2023/03/22 13:46:27;;;;;;;8.53;3.20;;;;;;;;;;5071726;28;20231;-56
2023/03/22 13:48:56;;;;;;;4.87;3.27;;;;;;;;;;5071692;28;20199;-56
2023/03/22 13:51:29;;;;;;;6.20;3.33;;;;;;;;;;5071459;28;20609;-57
2023/03/22 13:53:59;;;;;;;5.17;3.30;;;;;;;;;;5071741;28;20231;-56
2023/03/22 13:56:32;;;;;;;3.90;3.03;;;;;;;;;;5071398;28;20188;-57
2023/03/22 13:58:58;;;;;;;5.97;3.33;;;;;;;;;;5071733;28;20211;-57
2023/03/22 14:01:28;;;;;;;4.70;2.97;;;;;;;;;;5071688;28;20242;-59
2023/03/22 14:03:56;;;;;;;7.33;3.40;;;;;;;;;;5070909;28;20716;-56
2023/03/22 14:06:25;;;;;;;6.27;3.10;;;;;;;;;;5071577;28;20310;-57
2023/03/22 14:08:54;;;;;;;4.57;2.53;;;;;;;;;;5071723;28;20203;-60
2023/03/22 14:11:23;;;;;;;3.53;2.47;;;;;;;;;;5061810;28;20224;-58
2023/03/22 14:13:50;;;;;;;3.83;2.57;;;;;;;;;;5050975;28;20295;-57
2023/03/22 14:16:18;;;;;;;4.37;2.90;;;;;;;;;;5051110;28;20238;-58
2023/03/22 14:18:46;;;;;;;4.17;2.70;;;;;;;;;;5051026;28;20247;-58
2023/03/22 14:21:15;;;;;;;6.40;3.07;;;;;;;;;;5051389;28;20266;-59
2023/03/22 14:23:42;;;;;;;7.43;2.67;;;;;;;;;;5051160;28;20256;-58
2023/03/22 14:26:12;;;;;;;4.97;2.70;;;;;;;;;;5051319;28;20228;-58
2023/03/22 14:28:39;;;;;;;5.07;2.63;;;;;;;;;;5050940;28;20193;-57
2023/03/22 14:31:06;;;;;;;6.10;2.80;;;;;;;;;;5051155;28;20227;-57
2023/03/22 14:33:36;;;;;;;4.50;2.23;;;;;;;;;;5050722;28;20196;-57
2023/03/22 14:36:03;;;;;;;4.53;2.20;;;;;;;;;;5050708;28;20714;-57
2023/03/22 14:38:31;;;;;;;5.93;2.37;;;;;;;;;;5051133;28;20543;-56
2023/03/22 14:41:08;;;;;;;5.30;2.37;;;;;;;;;;5050841;28;20196;-57
2023/03/22 14:43:34;;;;;;;3.83;2.10;;;;;;;;;;5050717;28;20219;-55
2023/03/22 14:46:04;;;;;;;6.50;2.60;;;;;;;;;;5051062;28;20219;-56
2023/03/22 14:48:31;;;;;;;4.43;1.90;;;;;;;;;;5050765;28;20196;-55
2023/03/22 14:50:57;;;;;;;5.03;1.90;;;;;;;;;;5051000;28;20200;-54